sensor_id;sensor_type;location;lat;lon;timestamp;P1;durP1;ratioP1;P2;durP2;ratioP2
72904;SDS011;61048;52.162;4.516;2022-12-18T00:00:40;10.85;;;4.40;;
72904;SDS011;61048;52.162;4.516;2022-12-18T00:03:07;12.00;;;4.57;;
72904;SDS011;61048;52.162;4.516;2022-12-18T00:05:34;10.68;;;4.57;;
72904;SDS011;61048;52.162;4.516;2022-12-18T00:08:01;12.70;;;4.60;;
72904;SDS011;61048;52.162;4.516;2022-12-18T00:10:28;11.85;;;4.35;;
72904;SDS011;61048;52.162;4.516;2022-12-18T00:12:56;12.05;;;4.95;;
72904;SDS011;61048;52.162;4.516;2022-12-18T00:15:23;12.68;;;5.03;;
72904;SDS011;61048;52.162;4.516;2022-12-18T00:17:50;11.63;;;4.63;;
72904;SDS011;61048;52.162;4.516;2022-12-18T00:20:17;11.85;;;4.47;;
72904;SDS011;61048;52.162;4.516;2022-12-18T00:22:50;11.73;;;4.30;;
72904;SDS011;61048;52.162;4.516;2022-12-18T00:25:17;11.13;;;4.50;;
72904;SDS011;61048;52.162;4.516;2022-12-18T00:27:44;10.05;;;4.25;;
72904;SDS011;61048;52.162;4.516;2022-12-18T00:30:12;11.20;;;5.18;;
72904;SDS011;61048;52.162;4.516;2022-12-18T00:32:39;14.82;;;5.85;;
72904;SDS011;61048;52.162;4.516;2022-12-18T00:35:06;10.07;;;4.18;;
72904;SDS011;61048;52.162;4.516;2022-12-18T00:37:34;9.65;;;4.72;;
72904;SDS011;61048;52.162;4.516;2022-12-18T00:40:01;9.95;;;5.25;;
72904;SDS011;61048;52.162;4.516;2022-12-18T00:42:28;12.55;;;4.68;;
72904;SDS011;61048;52.162;4.516;2022-12-18T00:47:40;12.50;;;4.85;;
72904;SDS011;61048;52.162;4.516;2022-12-18T00:50:07;10.07;;;4.28;;
72904;SDS011;61048;52.162;4.516;2022-12-18T00:52:35;11.88;;;4.47;;
72904;SDS011;61048;52.162;4.516;2022-12-18T00:55:02;19.15;;;5.13;;
72904;SDS011;61048;52.162;4.516;2022-12-18T00:57:29;11.25;;;4.85;;
72904;SDS011;61048;52.162;4.516;2022-12-18T00:59:56;13.30;;;4.82;;
72904;SDS011;61048;52.162;4.516;2022-12-18T01:02:24;10.75;;;4.50;;
72904;SDS011;61048;52.162;4.516;2022-12-18T01:04:51;9.25;;;4.82;;
72904;SDS011;61048;52.162;4.516;2022-12-18T01:07:18;9.80;;;4.15;;
72904;SDS011;61048;52.162;4.516;2022-12-18T01:09:45;8.73;;;4.10;;
72904;SDS011;61048;52.162;4.516;2022-12-18T01:12:12;8.65;;;4.32;;
72904;SDS011;61048;52.162;4.516;2022-12-18T01:14:39;9.95;;;4.32;;
72904;SDS011;61048;52.162;4.516;2022-12-18T01:17:06;8.52;;;4.10;;
72904;SDS011;61048;52.162;4.516;2022-12-18T01:19:34;9.70;;;4.57;;
72904;SDS011;61048;52.162;4.516;2022-12-18T01:22:01;9.40;;;4.22;;
72904;SDS011;61048;52.162;4.516;2022-12-18T01:24:28;8.82;;;4.93;;
72904;SDS011;61048;52.162;4.516;2022-12-18T01:26:55;9.98;;;4.43;;
72904;SDS011;61048;52.162;4.516;2022-12-18T01:29:23;9.18;;;4.40;;
72904;SDS011;61048;52.162;4.516;2022-12-18T01:31:49;9.35;;;4.68;;
72904;SDS011;61048;52.162;4.516;2022-12-18T01:34:16;9.25;;;4.53;;
72904;SDS011;61048;52.162;4.516;2022-12-18T01:36:45;10.10;;;4.30;;
72904;SDS011;61048;52.162;4.516;2022-12-18T01:39:12;8.18;;;4.13;;
72904;SDS011;61048;52.162;4.516;2022-12-18T01:41:40;8.65;;;4.53;;
72904;SDS011;61048;52.162;4.516;2022-12-18T01:47:30;11.02;;;4.30;;
72904;SDS011;61048;52.162;4.516;2022-12-18T01:50:00;9.35;;;4.63;;
72904;SDS011;61048;52.162;4.516;2022-12-18T01:52:31;8.27;;;4.28;;
72904;SDS011;61048;52.162;4.516;2022-12-18T01:55:00;8.63;;;4.40;;
72904;SDS011;61048;52.162;4.516;2022-12-18T01:57:29;8.15;;;4.07;;
72904;SDS011;61048;52.162;4.516;2022-12-18T01:59:57;8.43;;;3.97;;
72904;SDS011;61048;52.162;4.516;2022-12-18T02:02:27;8.95;;;4.32;;
72904;SDS011;61048;52.162;4.516;2022-12-18T02:04:54;11.05;;;4.50;;
72904;SDS011;61048;52.162;4.516;2022-12-18T02:07:23;10.10;;;4.57;;
72904;SDS011;61048;52.162;4.516;2022-12-18T02:10:00;9.90;;;4.88;;
72904;SDS011;61048;52.162;4.516;2022-12-18T02:12:34;9.38;;;4.53;;
72904;SDS011;61048;52.162;4.516;2022-12-18T02:15:09;12.27;;;4.78;;
72904;SDS011;61048;52.162;4.516;2022-12-18T02:17:43;8.43;;;4.55;;
72904;SDS011;61048;52.162;4.516;2022-12-18T02:20:15;8.98;;;4.30;;
72904;SDS011;61048;52.162;4.516;2022-12-18T02:22:50;10.30;;;5.13;;
72904;SDS011;61048;52.162;4.516;2022-12-18T02:25:33;9.43;;;4.50;;
72904;SDS011;61048;52.162;4.516;2022-12-18T02:28:19;9.85;;;4.57;;
72904;SDS011;61048;52.162;4.516;2022-12-18T02:30:49;8.40;;;4.63;;
72904;SDS011;61048;52.162;4.516;2022-12-18T02:33:18;8.50;;;4.00;;
72904;SDS011;61048;52.162;4.516;2022-12-18T02:35:46;8.98;;;4.22;;
72904;SDS011;61048;52.162;4.516;2022-12-18T02:38:15;9.10;;;4.65;;
72904;SDS011;61048;52.162;4.516;2022-12-18T02:40:42;9.07;;;4.20;;
72904;SDS011;61048;52.162;4.516;2022-12-18T02:43:13;8.65;;;4.60;;
72904;SDS011;61048;52.162;4.516;2022-12-18T02:45:46;8.20;;;3.85;;
72904;SDS011;61048;52.162;4.516;2022-12-18T02:48:14;8.48;;;4.13;;
72904;SDS011;61048;52.162;4.516;2022-12-18T02:50:44;8.18;;;4.07;;
72904;SDS011;61048;52.162;4.516;2022-12-18T02:53:17;8.90;;;4.10;;
72904;SDS011;61048;52.162;4.516;2022-12-18T02:55:52;8.25;;;3.92;;
72904;SDS011;61048;52.162;4.516;2022-12-18T02:58:30;7.22;;;4.00;;
72904;SDS011;61048;52.162;4.516;2022-12-18T03:01:05;8.73;;;4.22;;
72904;SDS011;61048;52.162;4.516;2022-12-18T03:03:36;10.77;;;4.20;;
72904;SDS011;61048;52.162;4.516;2022-12-18T03:06:08;8.02;;;4.18;;
72904;SDS011;61048;52.162;4.516;2022-12-18T03:08:41;8.88;;;4.55;;
72904;SDS011;61048;52.162;4.516;2022-12-18T03:11:11;9.82;;;4.38;;
72904;SDS011;61048;52.162;4.516;2022-12-18T03:13:42;9.30;;;4.10;;
72904;SDS011;61048;52.162;4.516;2022-12-18T03:16:14;11.18;;;4.28;;
72904;SDS011;61048;52.162;4.516;2022-12-18T03:18:45;7.82;;;3.90;;
72904;SDS011;61048;52.162;4.516;2022-12-18T03:21:14;8.90;;;4.43;;
72904;SDS011;61048;52.162;4.516;2022-12-18T03:23:47;9.60;;;4.88;;
72904;SDS011;61048;52.162;4.516;2022-12-18T03:26:16;7.97;;;4.05;;
72904;SDS011;61048;52.162;4.516;2022-12-18T03:28:49;8.48;;;4.55;;
72904;SDS011;61048;52.162;4.516;2022-12-18T03:31:19;8.43;;;4.32;;
72904;SDS011;61048;52.162;4.516;2022-12-18T03:33:51;9.73;;;4.57;;
72904;SDS011;61048;52.162;4.516;2022-12-18T03:36:18;7.85;;;4.10;;
72904;SDS011;61048;52.162;4.516;2022-12-18T03:38:46;8.68;;;4.05;;
72904;SDS011;61048;52.162;4.516;2022-12-18T03:41:15;9.10;;;4.97;;
72904;SDS011;61048;52.162;4.516;2022-12-18T03:43:50;10.05;;;4.47;;
72904;SDS011;61048;52.162;4.516;2022-12-18T03:46:24;10.40;;;4.45;;
72904;SDS011;61048;52.162;4.516;2022-12-18T03:48:56;8.80;;;4.85;;
72904;SDS011;61048;52.162;4.516;2022-12-18T03:51:28;8.70;;;4.78;;
72904;SDS011;61048;52.162;4.516;2022-12-18T03:54:03;9.63;;;4.80;;
72904;SDS011;61048;52.162;4.516;2022-12-18T03:56:33;8.30;;;4.05;;
72904;SDS011;61048;52.162;4.516;2022-12-18T03:59:05;9.85;;;4.85;;
72904;SDS011;61048;52.162;4.516;2022-12-18T04:01:34;9.43;;;4.57;;
72904;SDS011;61048;52.162;4.516;2022-12-18T04:04:04;9.23;;;4.50;;
72904;SDS011;61048;52.162;4.516;2022-12-18T04:06:32;9.15;;;4.40;;
72904;SDS011;61048;52.162;4.516;2022-12-18T04:09:00;9.18;;;5.13;;
72904;SDS011;61048;52.162;4.516;2022-12-18T04:11:27;8.90;;;4.70;;
72904;SDS011;61048;52.162;4.516;2022-12-18T04:13:55;7.95;;;4.28;;
72904;SDS011;61048;52.162;4.516;2022-12-18T04:16:24;9.25;;;4.25;;
72904;SDS011;61048;52.162;4.516;2022-12-18T04:18:52;9.60;;;4.88;;
72904;SDS011;61048;52.162;4.516;2022-12-18T04:21:19;9.05;;;4.72;;
72904;SDS011;61048;52.162;4.516;2022-12-18T04:23:47;9.38;;;4.45;;
72904;SDS011;61048;52.162;4.516;2022-12-18T04:26:14;10.20;;;4.78;;
72904;SDS011;61048;52.162;4.516;2022-12-18T04:28:41;8.90;;;4.57;;
72904;SDS011;61048;52.162;4.516;2022-12-18T04:31:08;8.55;;;4.57;;
72904;SDS011;61048;52.162;4.516;2022-12-18T04:33:36;8.68;;;4.07;;
72904;SDS011;61048;52.162;4.516;2022-12-18T04:36:03;8.80;;;4.30;;
72904;SDS011;61048;52.162;4.516;2022-12-18T04:38:30;7.68;;;3.72;;
72904;SDS011;61048;52.162;4.516;2022-12-18T04:40:58;7.65;;;4.00;;
72904;SDS011;61048;52.162;4.516;2022-12-18T04:43:25;7.43;;;4.15;;
72904;SDS011;61048;52.162;4.516;2022-12-18T04:45:52;7.55;;;4.07;;
72904;SDS011;61048;52.162;4.516;2022-12-18T04:48:19;9.25;;;5.30;;
72904;SDS011;61048;52.162;4.516;2022-12-18T04:50:48;7.57;;;4.03;;
72904;SDS011;61048;52.162;4.516;2022-12-18T04:53:14;10.90;;;4.70;;
72904;SDS011;61048;52.162;4.516;2022-12-18T04:55:41;7.97;;;4.03;;
72904;SDS011;61048;52.162;4.516;2022-12-18T04:58:08;7.60;;;4.45;;
72904;SDS011;61048;52.162;4.516;2022-12-18T05:00:35;7.43;;;3.75;;
72904;SDS011;61048;52.162;4.516;2022-12-18T05:03:02;6.80;;;3.95;;
72904;SDS011;61048;52.162;4.516;2022-12-18T05:05:29;7.82;;;3.67;;
72904;SDS011;61048;52.162;4.516;2022-12-18T05:07:57;8.18;;;4.28;;
72904;SDS011;61048;52.162;4.516;2022-12-18T05:10:24;7.32;;;3.60;;
72904;SDS011;61048;52.162;4.516;2022-12-18T05:12:51;6.35;;;3.72;;
72904;SDS011;61048;52.162;4.516;2022-12-18T05:15:24;7.30;;;3.65;;
72904;SDS011;61048;52.162;4.516;2022-12-18T05:17:52;7.38;;;3.63;;
72904;SDS011;61048;52.162;4.516;2022-12-18T05:20:19;6.50;;;3.42;;
72904;SDS011;61048;52.162;4.516;2022-12-18T05:22:46;6.63;;;3.40;;
72904;SDS011;61048;52.162;4.516;2022-12-18T05:25:14;6.78;;;3.58;;
72904;SDS011;61048;52.162;4.516;2022-12-18T05:27:41;6.82;;;3.45;;
72904;SDS011;61048;52.162;4.516;2022-12-18T05:30:08;8.48;;;3.92;;
72904;SDS011;61048;52.162;4.516;2022-12-18T05:32:36;7.53;;;3.50;;
72904;SDS011;61048;52.162;4.516;2022-12-18T05:35:03;5.97;;;2.90;;
72904;SDS011;61048;52.162;4.516;2022-12-18T05:37:32;6.88;;;3.50;;
72904;SDS011;61048;52.162;4.516;2022-12-18T05:40:00;7.50;;;3.72;;
72904;SDS011;61048;52.162;4.516;2022-12-18T05:42:28;6.55;;;3.65;;
72904;SDS011;61048;52.162;4.516;2022-12-18T05:44:55;7.43;;;3.63;;
72904;SDS011;61048;52.162;4.516;2022-12-18T05:47:22;6.60;;;3.50;;
72904;SDS011;61048;52.162;4.516;2022-12-18T05:49:48;8.35;;;3.50;;
72904;SDS011;61048;52.162;4.516;2022-12-18T05:52:15;6.70;;;3.42;;
72904;SDS011;61048;52.162;4.516;2022-12-18T05:54:42;6.35;;;3.42;;
72904;SDS011;61048;52.162;4.516;2022-12-18T05:57:09;6.28;;;3.22;;
72904;SDS011;61048;52.162;4.516;2022-12-18T05:59:37;6.65;;;3.63;;
72904;SDS011;61048;52.162;4.516;2022-12-18T06:02:04;6.05;;;2.97;;
72904;SDS011;61048;52.162;4.516;2022-12-18T06:04:31;6.38;;;3.47;;
72904;SDS011;61048;52.162;4.516;2022-12-18T06:06:58;6.18;;;3.22;;
72904;SDS011;61048;52.162;4.516;2022-12-18T06:09:25;7.97;;;3.78;;
72904;SDS011;61048;52.162;4.516;2022-12-18T06:11:52;6.70;;;3.40;;
72904;SDS011;61048;52.162;4.516;2022-12-18T06:14:19;6.85;;;3.25;;
72904;SDS011;61048;52.162;4.516;2022-12-18T06:16:47;6.75;;;3.15;;
72904;SDS011;61048;52.162;4.516;2022-12-18T06:19:17;5.53;;;3.22;;
72904;SDS011;61048;52.162;4.516;2022-12-18T06:21:44;7.65;;;3.55;;
72904;SDS011;61048;52.162;4.516;2022-12-18T06:24:11;5.75;;;3.10;;
72904;SDS011;61048;52.162;4.516;2022-12-18T06:26:38;6.68;;;3.88;;
72904;SDS011;61048;52.162;4.516;2022-12-18T06:29:05;6.97;;;3.20;;
72904;SDS011;61048;52.162;4.516;2022-12-18T06:31:32;5.78;;;2.90;;
72904;SDS011;61048;52.162;4.516;2022-12-18T06:34:01;6.32;;;3.25;;
72904;SDS011;61048;52.162;4.516;2022-12-18T06:36:29;7.28;;;3.58;;
72904;SDS011;61048;52.162;4.516;2022-12-18T06:38:56;6.18;;;3.70;;
72904;SDS011;61048;52.162;4.516;2022-12-18T06:41:23;6.78;;;3.33;;
72904;SDS011;61048;52.162;4.516;2022-12-18T06:43:50;7.80;;;4.35;;
72904;SDS011;61048;52.162;4.516;2022-12-18T06:46:17;7.50;;;3.95;;
72904;SDS011;61048;52.162;4.516;2022-12-18T06:48:46;8.35;;;3.95;;
72904;SDS011;61048;52.162;4.516;2022-12-18T06:51:17;7.05;;;3.65;;
72904;SDS011;61048;52.162;4.516;2022-12-18T06:53:45;8.20;;;3.83;;
72904;SDS011;61048;52.162;4.516;2022-12-18T06:56:12;8.38;;;3.83;;
72904;SDS011;61048;52.162;4.516;2022-12-18T06:58:39;7.68;;;4.10;;
72904;SDS011;61048;52.162;4.516;2022-12-18T07:01:07;6.70;;;3.30;;
72904;SDS011;61048;52.162;4.516;2022-12-18T07:03:35;8.18;;;3.47;;
72904;SDS011;61048;52.162;4.516;2022-12-18T07:06:03;7.93;;;3.78;;
72904;SDS011;61048;52.162;4.516;2022-12-18T07:08:32;7.68;;;3.90;;
72904;SDS011;61048;52.162;4.516;2022-12-18T07:10:59;7.95;;;3.95;;
72904;SDS011;61048;52.162;4.516;2022-12-18T07:13:30;8.60;;;4.03;;
72904;SDS011;61048;52.162;4.516;2022-12-18T07:16:02;8.52;;;3.67;;
72904;SDS011;61048;52.162;4.516;2022-12-18T07:18:33;7.13;;;3.90;;
72904;SDS011;61048;52.162;4.516;2022-12-18T07:21:02;7.10;;;3.63;;
72904;SDS011;61048;52.162;4.516;2022-12-18T07:23:32;7.38;;;3.70;;
72904;SDS011;61048;52.162;4.516;2022-12-18T07:26:01;8.00;;;4.18;;
72904;SDS011;61048;52.162;4.516;2022-12-18T07:28:28;8.88;;;4.00;;
72904;SDS011;61048;52.162;4.516;2022-12-18T07:30:55;7.35;;;3.97;;
72904;SDS011;61048;52.162;4.516;2022-12-18T07:33:22;6.88;;;3.80;;
72904;SDS011;61048;52.162;4.516;2022-12-18T07:35:49;8.32;;;3.58;;
72904;SDS011;61048;52.162;4.516;2022-12-18T07:38:16;8.00;;;4.20;;
72904;SDS011;61048;52.162;4.516;2022-12-18T07:40:44;9.23;;;4.60;;
72904;SDS011;61048;52.162;4.516;2022-12-18T07:43:11;7.45;;;4.28;;
72904;SDS011;61048;52.162;4.516;2022-12-18T07:45:38;7.55;;;3.80;;
72904;SDS011;61048;52.162;4.516;2022-12-18T07:48:05;7.63;;;4.38;;
72904;SDS011;61048;52.162;4.516;2022-12-18T07:50:32;7.40;;;4.28;;
72904;SDS011;61048;52.162;4.516;2022-12-18T07:52:58;7.75;;;4.13;;
72904;SDS011;61048;52.162;4.516;2022-12-18T07:55:28;8.10;;;3.78;;
72904;SDS011;61048;52.162;4.516;2022-12-18T07:57:56;7.93;;;3.95;;
72904;SDS011;61048;52.162;4.516;2022-12-18T08:00:26;6.95;;;4.70;;
72904;SDS011;61048;52.162;4.516;2022-12-18T08:02:53;8.15;;;4.10;;
72904;SDS011;61048;52.162;4.516;2022-12-18T08:05:20;6.63;;;3.63;;
72904;SDS011;61048;52.162;4.516;2022-12-18T08:07:47;7.82;;;3.97;;
72904;SDS011;61048;52.162;4.516;2022-12-18T08:10:14;8.25;;;4.03;;
72904;SDS011;61048;52.162;4.516;2022-12-18T08:12:41;7.95;;;4.10;;
72904;SDS011;61048;52.162;4.516;2022-12-18T08:15:10;7.60;;;4.28;;
72904;SDS011;61048;52.162;4.516;2022-12-18T08:17:37;8.30;;;3.92;;
72904;SDS011;61048;52.162;4.516;2022-12-18T08:20:04;7.72;;;4.05;;
72904;SDS011;61048;52.162;4.516;2022-12-18T08:22:33;7.22;;;3.60;;
72904;SDS011;61048;52.162;4.516;2022-12-18T08:25:00;7.13;;;3.92;;
72904;SDS011;61048;52.162;4.516;2022-12-18T08:27:27;8.07;;;5.00;;
72904;SDS011;61048;52.162;4.516;2022-12-18T08:29:54;7.90;;;4.45;;
72904;SDS011;61048;52.162;4.516;2022-12-18T08:32:23;6.63;;;3.90;;
72904;SDS011;61048;52.162;4.516;2022-12-18T08:34:50;8.60;;;4.18;;
72904;SDS011;61048;52.162;4.516;2022-12-18T08:37:17;7.93;;;4.68;;
72904;SDS011;61048;52.162;4.516;2022-12-18T08:39:44;8.32;;;4.07;;
72904;SDS011;61048;52.162;4.516;2022-12-18T08:42:11;6.93;;;3.72;;
72904;SDS011;61048;52.162;4.516;2022-12-18T08:44:55;8.13;;;4.03;;
72904;SDS011;61048;52.162;4.516;2022-12-18T08:47:24;8.50;;;4.65;;
72904;SDS011;61048;52.162;4.516;2022-12-18T08:49:51;8.57;;;3.95;;
72904;SDS011;61048;52.162;4.516;2022-12-18T08:52:18;7.10;;;4.00;;
72904;SDS011;61048;52.162;4.516;2022-12-18T08:54:45;7.10;;;3.95;;
72904;SDS011;61048;52.162;4.516;2022-12-18T08:57:12;6.90;;;3.85;;
72904;SDS011;61048;52.162;4.516;2022-12-18T08:59:39;6.25;;;3.72;;
72904;SDS011;61048;52.162;4.516;2022-12-18T09:02:06;9.35;;;3.45;;
72904;SDS011;61048;52.162;4.516;2022-12-18T09:04:35;6.75;;;3.53;;
72904;SDS011;61048;52.162;4.516;2022-12-18T09:07:02;8.38;;;4.05;;
72904;SDS011;61048;52.162;4.516;2022-12-18T09:09:29;5.65;;;3.42;;
72904;SDS011;61048;52.162;4.516;2022-12-18T09:11:56;12.75;;;3.58;;
72904;SDS011;61048;52.162;4.516;2022-12-18T09:14:23;9.10;;;3.78;;
72904;SDS011;61048;52.162;4.516;2022-12-18T09:16:49;7.35;;;3.88;;
72904;SDS011;61048;52.162;4.516;2022-12-18T09:19:16;5.97;;;3.55;;
72904;SDS011;61048;52.162;4.516;2022-12-18T09:21:44;9.73;;;4.55;;
72904;SDS011;61048;52.162;4.516;2022-12-18T09:24:12;8.60;;;3.88;;
72904;SDS011;61048;52.162;4.516;2022-12-18T09:26:40;7.70;;;3.80;;
72904;SDS011;61048;52.162;4.516;2022-12-18T09:29:07;11.45;;;4.15;;
72904;SDS011;61048;52.162;4.516;2022-12-18T09:31:34;7.50;;;3.72;;
72904;SDS011;61048;52.162;4.516;2022-12-18T09:34:01;7.80;;;4.40;;
72904;SDS011;61048;52.162;4.516;2022-12-18T09:36:28;8.02;;;4.60;;
72904;SDS011;61048;52.162;4.516;2022-12-18T09:38:57;7.55;;;4.53;;
72904;SDS011;61048;52.162;4.516;2022-12-18T09:41:32;8.70;;;4.90;;
72904;SDS011;61048;52.162;4.516;2022-12-18T09:44:10;8.63;;;5.07;;
72904;SDS011;61048;52.162;4.516;2022-12-18T09:46:43;16.88;;;5.85;;
72904;SDS011;61048;52.162;4.516;2022-12-18T09:49:12;31.00;;;9.48;;
72904;SDS011;61048;52.162;4.516;2022-12-18T09:54:16;21.10;;;6.57;;
72904;SDS011;61048;52.162;4.516;2022-12-18T09:56:46;21.98;;;7.43;;
72904;SDS011;61048;52.162;4.516;2022-12-18T09:59:16;21.25;;;7.25;;
72904;SDS011;61048;52.162;4.516;2022-12-18T10:01:47;29.80;;;8.77;;
72904;SDS011;61048;52.162;4.516;2022-12-18T10:04:14;25.83;;;7.30;;
72904;SDS011;61048;52.162;4.516;2022-12-18T10:06:43;22.02;;;7.28;;
72904;SDS011;61048;52.162;4.516;2022-12-18T10:09:19;23.33;;;7.07;;
72904;SDS011;61048;52.162;4.516;2022-12-18T10:11:53;29.50;;;7.72;;
72904;SDS011;61048;52.162;4.516;2022-12-18T10:14:30;23.70;;;7.45;;
72904;SDS011;61048;52.162;4.516;2022-12-18T10:17:02;27.95;;;7.93;;
72904;SDS011;61048;52.162;4.516;2022-12-18T10:19:39;18.85;;;6.80;;
72904;SDS011;61048;52.162;4.516;2022-12-18T10:22:17;22.73;;;7.63;;
72904;SDS011;61048;52.162;4.516;2022-12-18T10:24:54;18.52;;;7.13;;
72904;SDS011;61048;52.162;4.516;2022-12-18T10:27:26;14.65;;;5.93;;
72904;SDS011;61048;52.162;4.516;2022-12-18T10:29:54;17.70;;;6.72;;
72904;SDS011;61048;52.162;4.516;2022-12-18T10:32:22;17.15;;;6.55;;
72904;SDS011;61048;52.162;4.516;2022-12-18T10:34:52;17.13;;;6.80;;
72904;SDS011;61048;52.162;4.516;2022-12-18T10:37:21;12.77;;;6.72;;
72904;SDS011;61048;52.162;4.516;2022-12-18T10:40:04;13.73;;;6.68;;
72904;SDS011;61048;52.162;4.516;2022-12-18T10:42:36;16.20;;;6.20;;
72904;SDS011;61048;52.162;4.516;2022-12-18T10:45:05;14.70;;;6.38;;
72904;SDS011;61048;52.162;4.516;2022-12-18T10:47:35;14.30;;;7.13;;
72904;SDS011;61048;52.162;4.516;2022-12-18T10:50:11;9.27;;;5.35;;
72904;SDS011;61048;52.162;4.516;2022-12-18T10:52:49;14.45;;;6.95;;
72904;SDS011;61048;52.162;4.516;2022-12-18T10:55:21;13.27;;;6.30;;
72904;SDS011;61048;52.162;4.516;2022-12-18T10:57:50;13.25;;;6.35;;
72904;SDS011;61048;52.162;4.516;2022-12-18T11:00:22;16.58;;;6.32;;
72904;SDS011;61048;52.162;4.516;2022-12-18T11:02:51;13.77;;;6.18;;
72904;SDS011;61048;52.162;4.516;2022-12-18T11:05:25;15.77;;;6.90;;
72904;SDS011;61048;52.162;4.516;2022-12-18T11:07:54;12.48;;;6.25;;
72904;SDS011;61048;52.162;4.516;2022-12-18T11:10:23;12.45;;;6.47;;
72904;SDS011;61048;52.162;4.516;2022-12-18T11:12:54;12.05;;;6.20;;
72904;SDS011;61048;52.162;4.516;2022-12-18T11:15:22;11.05;;;6.13;;
72904;SDS011;61048;52.162;4.516;2022-12-18T11:17:52;11.13;;;5.93;;
72904;SDS011;61048;52.162;4.516;2022-12-18T11:20:21;10.45;;;5.75;;
72904;SDS011;61048;52.162;4.516;2022-12-18T11:22:55;12.68;;;6.43;;
72904;SDS011;61048;52.162;4.516;2022-12-18T11:25:25;12.27;;;6.20;;
72904;SDS011;61048;52.162;4.516;2022-12-18T11:27:54;11.07;;;6.20;;
72904;SDS011;61048;52.162;4.516;2022-12-18T11:30:23;11.02;;;5.97;;
72904;SDS011;61048;52.162;4.516;2022-12-18T11:32:53;10.48;;;5.07;;
72904;SDS011;61048;52.162;4.516;2022-12-18T11:35:35;11.70;;;5.63;;
72904;SDS011;61048;52.162;4.516;2022-12-18T11:38:09;10.10;;;5.28;;
72904;SDS011;61048;52.162;4.516;2022-12-18T11:40:47;10.70;;;5.20;;
72904;SDS011;61048;52.162;4.516;2022-12-18T11:43:20;11.95;;;5.18;;
72904;SDS011;61048;52.162;4.516;2022-12-18T11:45:52;7.03;;;4.30;;
72904;SDS011;61048;52.162;4.516;2022-12-18T11:48:22;9.70;;;4.95;;
72904;SDS011;61048;52.162;4.516;2022-12-18T11:50:52;9.07;;;4.57;;
72904;SDS011;61048;52.162;4.516;2022-12-18T11:53:21;12.13;;;5.60;;
72904;SDS011;61048;52.162;4.516;2022-12-18T11:55:58;13.23;;;5.57;;
72904;SDS011;61048;52.162;4.516;2022-12-18T11:58:38;9.75;;;5.07;;
72904;SDS011;61048;52.162;4.516;2022-12-18T12:01:15;12.90;;;5.90;;
72904;SDS011;61048;52.162;4.516;2022-12-18T12:04:12;10.02;;;5.35;;
72904;SDS011;61048;52.162;4.516;2022-12-18T12:06:53;10.57;;;5.15;;
72904;SDS011;61048;52.162;4.516;2022-12-18T12:09:31;8.65;;;5.25;;
72904;SDS011;61048;52.162;4.516;2022-12-18T12:12:10;10.32;;;5.70;;
72904;SDS011;61048;52.162;4.516;2022-12-18T12:14:52;11.57;;;5.85;;
72904;SDS011;61048;52.162;4.516;2022-12-18T12:17:30;10.60;;;5.65;;
72904;SDS011;61048;52.162;4.516;2022-12-18T12:20:06;10.15;;;5.90;;
72904;SDS011;61048;52.162;4.516;2022-12-18T12:22:41;12.63;;;6.57;;
72904;SDS011;61048;52.162;4.516;2022-12-18T12:25:18;8.90;;;5.35;;
72904;SDS011;61048;52.162;4.516;2022-12-18T12:27:57;10.52;;;6.28;;
72904;SDS011;61048;52.162;4.516;2022-12-18T12:30:38;8.95;;;5.75;;
72904;SDS011;61048;52.162;4.516;2022-12-18T12:33:14;9.60;;;6.40;;
72904;SDS011;61048;52.162;4.516;2022-12-18T12:35:55;11.60;;;6.30;;
72904;SDS011;61048;52.162;4.516;2022-12-18T12:38:28;11.52;;;5.88;;
72904;SDS011;61048;52.162;4.516;2022-12-18T12:40:59;9.60;;;5.43;;
72904;SDS011;61048;52.162;4.516;2022-12-18T12:43:32;10.38;;;5.80;;
72904;SDS011;61048;52.162;4.516;2022-12-18T12:46:03;10.43;;;5.63;;
72904;SDS011;61048;52.162;4.516;2022-12-18T12:48:37;9.77;;;5.65;;
72904;SDS011;61048;52.162;4.516;2022-12-18T12:51:09;9.57;;;6.00;;
72904;SDS011;61048;52.162;4.516;2022-12-18T12:53:41;9.95;;;5.55;;
72904;SDS011;61048;52.162;4.516;2022-12-18T12:56:09;11.25;;;5.68;;
72904;SDS011;61048;52.162;4.516;2022-12-18T12:58:41;9.57;;;5.20;;
72904;SDS011;61048;52.162;4.516;2022-12-18T13:01:17;9.63;;;5.30;;
72904;SDS011;61048;52.162;4.516;2022-12-18T13:03:55;8.95;;;5.25;;
72904;SDS011;61048;52.162;4.516;2022-12-18T13:06:32;8.70;;;4.82;;
72904;SDS011;61048;52.162;4.516;2022-12-18T13:09:03;9.63;;;5.88;;
72904;SDS011;61048;52.162;4.516;2022-12-18T13:11:32;8.70;;;5.43;;
72904;SDS011;61048;52.162;4.516;2022-12-18T13:14:23;8.25;;;5.28;;
72904;SDS011;61048;52.162;4.516;2022-12-18T13:17:00;10.70;;;5.68;;
72904;SDS011;61048;52.162;4.516;2022-12-18T13:20:02;9.68;;;5.85;;
72904;SDS011;61048;52.162;4.516;2022-12-18T13:22:33;8.60;;;5.15;;
72904;SDS011;61048;52.162;4.516;2022-12-18T13:25:01;7.60;;;4.90;;
72904;SDS011;61048;52.162;4.516;2022-12-18T13:27:45;11.38;;;5.78;;
72904;SDS011;61048;52.162;4.516;2022-12-18T13:33:37;9.43;;;5.88;;
72904;SDS011;61048;52.162;4.516;2022-12-18T13:36:11;10.32;;;5.72;;
72904;SDS011;61048;52.162;4.516;2022-12-18T13:38:41;9.50;;;5.75;;
72904;SDS011;61048;52.162;4.516;2022-12-18T13:41:21;10.02;;;5.78;;
72904;SDS011;61048;52.162;4.516;2022-12-18T13:43:49;9.32;;;5.50;;
72904;SDS011;61048;52.162;4.516;2022-12-18T13:46:20;10.68;;;5.85;;
72904;SDS011;61048;52.162;4.516;2022-12-18T13:48:54;9.48;;;5.97;;
72904;SDS011;61048;52.162;4.516;2022-12-18T13:51:23;10.93;;;5.78;;
72904;SDS011;61048;52.162;4.516;2022-12-18T13:53:51;9.95;;;5.43;;
72904;SDS011;61048;52.162;4.516;2022-12-18T13:56:24;10.45;;;6.03;;
72904;SDS011;61048;52.162;4.516;2022-12-18T13:59:05;10.55;;;6.25;;
72904;SDS011;61048;52.162;4.516;2022-12-18T14:01:46;12.02;;;5.65;;
72904;SDS011;61048;52.162;4.516;2022-12-18T14:04:18;11.05;;;6.10;;
72904;SDS011;61048;52.162;4.516;2022-12-18T14:06:49;10.35;;;5.75;;
72904;SDS011;61048;52.162;4.516;2022-12-18T14:09:19;9.40;;;5.43;;
72904;SDS011;61048;52.162;4.516;2022-12-18T14:11:51;10.63;;;5.35;;
72904;SDS011;61048;52.162;4.516;2022-12-18T14:14:40;9.20;;;5.03;;
72904;SDS011;61048;52.162;4.516;2022-12-18T14:17:11;8.93;;;5.53;;
72904;SDS011;61048;52.162;4.516;2022-12-18T14:19:41;10.50;;;6.10;;
72904;SDS011;61048;52.162;4.516;2022-12-18T14:22:13;9.30;;;5.45;;
72904;SDS011;61048;52.162;4.516;2022-12-18T14:24:42;11.13;;;5.22;;
72904;SDS011;61048;52.162;4.516;2022-12-18T14:27:19;13.63;;;5.70;;
72904;SDS011;61048;52.162;4.516;2022-12-18T14:29:48;13.00;;;5.43;;
72904;SDS011;61048;52.162;4.516;2022-12-18T14:32:17;15.52;;;6.85;;
72904;SDS011;61048;52.162;4.516;2022-12-18T14:34:45;13.02;;;5.75;;
72904;SDS011;61048;52.162;4.516;2022-12-18T14:37:13;12.73;;;6.18;;
72904;SDS011;61048;52.162;4.516;2022-12-18T14:39:51;13.02;;;6.00;;
72904;SDS011;61048;52.162;4.516;2022-12-18T14:42:19;14.82;;;6.57;;
72904;SDS011;61048;52.162;4.516;2022-12-18T14:44:46;14.90;;;6.78;;
72904;SDS011;61048;52.162;4.516;2022-12-18T14:47:13;18.67;;;6.72;;
72904;SDS011;61048;52.162;4.516;2022-12-18T14:49:42;17.20;;;6.28;;
72904;SDS011;61048;52.162;4.516;2022-12-18T14:52:16;20.10;;;7.47;;
72904;SDS011;61048;52.162;4.516;2022-12-18T14:54:48;14.80;;;6.45;;
72904;SDS011;61048;52.162;4.516;2022-12-18T14:57:18;20.58;;;7.20;;
72904;SDS011;61048;52.162;4.516;2022-12-18T14:59:48;18.77;;;6.25;;
72904;SDS011;61048;52.162;4.516;2022-12-18T15:02:18;14.25;;;6.07;;
72904;SDS011;61048;52.162;4.516;2022-12-18T15:04:58;13.25;;;6.32;;
72904;SDS011;61048;52.162;4.516;2022-12-18T15:07:27;16.98;;;6.82;;
72904;SDS011;61048;52.162;4.516;2022-12-18T15:10:09;14.40;;;5.78;;
72904;SDS011;61048;52.162;4.516;2022-12-18T15:12:40;18.90;;;6.45;;